• Join FlightAware (Why Join?)
  • Login
  • US Flag 
Rudolph Flight #1: Arrived! 
06:42PM EST


 

Airport Tracker/Info


-or-


 

Live Flight TrackerFlight Track Log ✈ N589CA ✈ 23-May-2013 ✈ KCPF - KFDK

Flight Track Log - Related Links

Times and Time Zones

All times are in EDT time to prevent confusion due to time zone crossing. See the N589CA flight status page for this flight to view local times or setup timezone preferences in your user account.

Time Position Orientation Groundspeed Altitude Reporting Facility
EDT Latitude Longitude Course Direction KTS MPH feet Rate Location/Type
01:50PM 37.3775 -83.2139 79° East 93 107 2,100  Level Indianapolis Center
01:51PM 37.3921 -83.2137 83° East  Level FlightAware Approximate
01:51PM 37.3917 -83.1728 67° East 104 120 2,900  Level Indianapolis Center
01:52PM 37.3968 -83.1658 83° East  Level FlightAware Approximate
01:52PM 37.3994 -83.1350 75° East 109 125 3,500  Level Indianapolis Center
01:53PM 37.4135 -83.1223 73° East  Level Estimated
01:53PM 37.4067 -83.0972 76° East 110 127 4,200  Level Indianapolis Center
01:54PM 37.4302 -83.0788 90° East  Level Estimated
01:54PM 37.4097 -83.0536 85° East 116 133 4,500  Level Indianapolis Center
01:55PM 37.4192 -83.0117 74° East 122 140 5,200 480 Climbing Indianapolis Center
01:56PM 37.4319 -82.9717 68° East 122 140 5,600 420 Climbing Indianapolis Center
01:57PM 37.4411 -82.9283 75° East 124 143 6,100 480 Climbing Indianapolis Center
01:58PM 37.4514 -82.8753 76° East 131 151 6,600 480 Climbing Indianapolis Center
01:59PM 37.4597 -82.8314 77° East 130 150 7,100 360 Climbing Indianapolis Center
02:00PM 37.4725 -82.7900 69° East 128 147 7,400 360 Climbing Indianapolis Center
02:01PM 37.4931 -82.7522 56° Northeast 130 150 7,900 420 Climbing Indianapolis Center
02:02PM 37.5122 -82.7119 59° Northeast 132 152 8,300 300 Climbing Indianapolis Center
02:03PM 37.5317 -82.6717 59° Northeast 134 154 8,600 360 Climbing Indianapolis Center
02:04PM 37.5561 -82.6275 55° Northeast 133 153 9,100 360 Climbing Indianapolis Center
02:05PM 37.5781 -82.5897 54° Northeast 133 153 9,400 240 Climbing Indianapolis Center
02:06PM 37.6053 -82.5631 38° Northeast 127 146 9,600 180 Climbing Indianapolis Center
02:07PM 37.6364 -82.5469 22° Northeast 122 140 9,800 240 Climbing Indianapolis Center
02:09PM 37.6664 -82.5256 29° Northeast 123 142 10,100 240 Climbing Indianapolis Center
02:10PM 37.6742 -82.4767 79° East 134 154 10,400 240 Climbing Indianapolis Center
02:11PM 37.7019 -82.4450 42° Northeast 134 154 10,600 60 Climbing Indianapolis Center
02:12PM 37.7336 -82.4108 40° Northeast 130 150 10,600 -120 Level Indianapolis Center
02:13PM 37.7489 -82.3644 67° East 143 165 10,400 -120 Descending Indianapolis Center
02:14PM 37.7683 -82.3222 60° Northeast 141 162 10,400 120 Level Indianapolis Center
02:15PM 37.7808 -82.2772 71° East 135 155 10,700 240 Climbing Indianapolis Center
02:16PM 37.7961 -82.2339 66° East 136 157 11,000 120 Climbing Indianapolis Center
02:17PM 37.8219 -82.2028 44° Northeast 130 150 11,000 -180 Level Indianapolis Center
02:18PM 37.8383 -82.1556 66° East 136 157 10,700 -540 Descending Indianapolis Center
02:19PM 37.8544 -82.1031 69° East 156 180 9,900 -1,020 Descending Indianapolis Center
02:20PM 37.8469 -82.0567 102° East 138 159 8,700 -1,440 Descending Indianapolis Center
02:21PM 37.8583 -81.9931 77° East 155 178 7,000 -840 Descending Indianapolis Center
02:22PM 37.8806 -81.9500 57° Northeast 150 173 7,000  Level Indianapolis Center
02:23PM 37.9097 -81.9086 48° Northeast 155 178 7,000  Level Indianapolis Center
02:24PM 37.9375 -81.8644 51° Northeast 159 183 7,000  Level Indianapolis Center
02:25PM 37.9592 -81.8100 63° Northeast 170 196 7,000 -120 Level Indianapolis Center
02:26PM 37.9833 -81.7603 58° Northeast 167 192 6,800 -420 Descending Indianapolis Center
02:27PM 38.0036 -81.7147 61° Northeast 156 180 6,200 -660 Descending Indianapolis Center
02:28PM 38.0306 -81.6603 58° Northeast 152 175 5,500 -600 Descending Indianapolis Center
02:29PM 38.0539 -81.6078 61° Northeast 167 192 5,000 -120 Descending Indianapolis Center
02:34PM 38.1670 -81.3640 61° Northeast 145 167 5,100  Climbing FlightAware
02:35PM 38.1740 -81.3490 59° Northeast 148 170 5,100  Level FlightAware
02:35PM 38.1830 -81.3290 60° Northeast 146 168 5,100  Level FlightAware
02:36PM 38.1940 -81.3070 58° Northeast 142 163 5,100  Level FlightAware
02:36PM 38.2010 -81.2900 62° Northeast 144 166 5,100  Level FlightAware
02:36PM 38.2070 -81.2790 55° Northeast 145 167 5,100  Level FlightAware
02:37PM 38.2170 -81.2570 60° Northeast 146 168 5,100  Level FlightAware
02:37PM 38.2230 -81.2440 60° Northeast 144 166 5,100  Level FlightAware
02:38PM 38.2310 -81.2270 59° Northeast 144 166 5,100 -120 Level FlightAware
02:38PM 38.2453 -81.1964 59° Northeast 149 171 5,000  Descending Indianapolis Center
02:44PM 38.3620 -80.9390 59° Northeast 145 167 5,100  Climbing FlightAware
02:44PM 38.3700 -80.9230 57° Northeast 145 167 5,100 180 Level FlightAware
02:46PM 38.3903 -80.8792 57° Northeast 144 166 5,400 240 Climbing Indianapolis Center
02:47PM 38.4097 -80.8378 59° Northeast 139 160 5,700 300 Climbing Indianapolis Center
02:48PM 38.4322 -80.7850 61° Northeast 141 162 6,100 300 Climbing Indianapolis Center
02:49PM 38.4525 -80.7419 59° Northeast 141 162 6,400 300 Climbing Indianapolis Center
02:50PM 38.4725 -80.6983 60° Northeast 142 163 6,800 240 Climbing Indianapolis Center
02:51PM 38.4917 -80.6536 61° Northeast 144 166 6,900  Climbing Indianapolis Center
02:52PM 38.5139 -80.6056 59° Northeast 150 173 6,900  Level Indianapolis Center
02:53PM 38.5356 -80.5603 59° Northeast 151 174 6,900  Level Indianapolis Center
02:54PM 38.5561 -80.5114 62° Northeast 155 178 6,900  Level Indianapolis Center
02:55PM 38.5817 -80.4542 60° Northeast 156 180 6,900  Level Indianapolis Center
02:56PM 38.6011 -80.4117 60° Northeast 152 175 6,900  Level Indianapolis Center
02:57PM 38.6242 -80.3603 60° Northeast 152 175 6,900  Level Indianapolis Center
02:58PM 38.6433 -80.3156 61° Northeast 147 169 6,900  Level Indianapolis Center
02:59PM 38.6650 -80.2711 58° Northeast 147 169 6,900  Level Indianapolis Center
03:00PM 38.6856 -80.2247 60° Northeast 148 170 6,900  Level Indianapolis Center
03:02PM 38.7297 -80.1292 59° Northeast 150 173 6,900  Level Washington Center
03:03PM 38.7525 -80.0772 61° Northeast 160 184 6,900  Level Washington Center
03:04PM 38.7753 -80.0281 59° Northeast 155 178 6,900  Level Washington Center
03:05PM 38.7981 -79.9761 61° Northeast 155 178 6,900  Level Washington Center
03:06PM 38.8206 -79.9269 60° Northeast 155 178 6,900  Level Washington Center
03:07PM 38.8414 -79.8747 63° Northeast 155 178 7,000  Climbing Washington Center
03:08PM 38.8639 -79.8281 58° Northeast 155 178 7,000  Level Washington Center
03:09PM 38.8864 -79.7814 58° Northeast 155 178 7,000  Level Washington Center
03:10PM 38.9047 -79.7344 63° Northeast 155 178 7,000  Level Washington Center
03:11PM 38.9250 -79.6875 61° Northeast 155 178 7,000  Level Washington Center
03:12PM 38.9453 -79.6406 61° Northeast 155 178 7,000  Level Washington Center
03:13PM 38.9678 -79.5886 61° Northeast 155 178 7,000  Level Washington Center
03:14PM 38.9928 -79.5311 61° Northeast 167 192 7,000  Level Washington Center
03:15PM 39.0131 -79.4842 61° Northeast 162 186 7,000  Level Washington Center
03:16PM 39.0356 -79.4344 60° Northeast 156 180 7,000  Level Washington Center
03:17PM 39.0597 -79.3903 55° Northeast 151 174 7,000  Level Washington Center
03:18PM 39.0803 -79.3378 63° Northeast 151 174 7,000  Level Washington Center
03:19PM 39.1025 -79.2883 60° Northeast 156 180 7,000  Level Washington Center
03:20PM 39.1208 -79.2383 65° Northeast 156 180 7,000  Level Washington Center
03:21PM 39.1411 -79.1883 62° Northeast 156 180 7,000  Level Washington Center
03:22PM 39.1614 -79.1386 62° Northeast 156 180 7,000  Level Washington Center
03:23PM 39.1817 -79.0886 62° Northeast 156 180 7,000  Level Washington Center
03:24PM 39.2036 -79.0417 59° Northeast 156 180 7,000  Level Washington Center
03:25PM 39.2239 -78.9917 62° Northeast 156 180 7,000  Level Washington Center
03:26PM 39.2336 -78.9383 77° East 151 174 7,000  Level Washington Center
03:27PM 39.2414 -78.8853 79° East 146 168 7,000  Level Washington Center
03:28PM 39.2492 -78.8292 80° East 146 168 7,000  Level Washington Center
03:29PM 39.2569 -78.7733 80° East 146 168 7,000  Level Washington Center
03:30PM 39.2647 -78.7175 80° East 146 168 7,000  Level Washington Center
03:31PM 39.2725 -78.6614 80° East 151 174 7,000  Level Washington Center
03:32PM 39.2822 -78.6056 77° East 151 174 7,000  Level Washington Center
03:33PM 39.2897 -78.5522 80° East 156 180 7,000  Level Washington Center
03:34PM 39.2953 -78.4933 83° East 156 180 7,000  Level Washington Center
03:35PM 39.3008 -78.4372 83° East 161 185 7,000  Level Washington Center
03:36PM 39.3003 -78.3756 91° East 161 185 7,000  Level Washington Center
03:37PM 39.2975 -78.3164 93° East 161 185 7,000 -360 Level Washington Center
03:43PM 39.3480 -78.0470 93° East 150 173 4,900 -420 Descending FlightAware
03:43PM 39.3530 -78.0250 74° East 148 170 4,700 -480 Descending FlightAware
03:43PM 39.3550 -78.0130 78° East 147 169 4,600 -600 Descending FlightAware
03:44PM 39.3590 -77.9900 77° East 147 169 4,300 -600 Descending FlightAware
03:44PM 39.3640 -77.9660 75° East 147 169 4,100 -240 Descending FlightAware
03:45PM 39.3700 -77.9330 77° East 144 166 4,100  Level FlightAware
03:45PM 39.3750 -77.9060 77° East 144 166 4,100  Level FlightAware
03:46PM 39.3800 -77.8800 76° East 150 173 4,100  Level FlightAware
03:46PM 39.3820 -77.8680 78° East 152 175 4,100  Level FlightAware
03:46PM 39.3860 -77.8430 78° East 150 173 4,100  Level FlightAware
03:47PM 39.3880 -77.8170 84° East 153 176 4,100  Level FlightAware
03:47PM 39.3890 -77.8050 84° East 153 176 4,100  Level FlightAware
03:48PM 39.3910 -77.7850 83° East 155 178 4,100  Level FlightAware
03:48PM 39.3970 -77.7780 42° Northeast 156 180 4,100  Level FlightAware
03:48PM 39.4040 -77.7760 12° North 153 176 4,100  Level FlightAware
03:48PM 39.4190 -77.7730 North 153 176 4,100  Level FlightAware
03:49PM 39.4570 -77.7840 347° North 153 176 4,100  Level FlightAware
03:49PM 39.4740 -77.7860 355° North 154 177 4,100  Level FlightAware
03:50PM 39.4930 -77.7890 353° North 154 177 4,100  Level FlightAware
03:50PM 39.5130 -77.7920 353° North 155 178 4,100  Level FlightAware
03:51PM 39.5270 -77.7720 48° Northeast 149 171 4,100  Level FlightAware
03:51PM 39.5250 -77.7460 96° East 151 174 4,100  Level FlightAware
03:52PM 39.5230 -77.7230 96° East 148 170 4,100  Level FlightAware
03:52PM 39.5210 -77.7110 102° East 149 171 4,100  Level FlightAware
03:52PM 39.5190 -77.6840 95° East 152 175 4,100 -240 Level FlightAware
03:53PM 39.5170 -77.6620 97° East 160 184 3,900 -420 Descending FlightAware
03:53PM 39.5170 -77.6540 90° East 157 181 3,800 -480 Descending FlightAware
03:54PM 39.5140 -77.6280 98° East 151 174 3,600 -540 Descending FlightAware
03:54PM 39.5110 -77.6080 101° East 147 169 3,400 -600 Descending FlightAware
03:55PM 39.4833 -77.5500 101° East 140 161 3,000 -300 Descending Potomac TRACON
03:56PM 39.4833 -77.5000 90° East 147 169 2,900 -360 Descending Potomac TRACON
03:57PM 39.4833 -77.4500 90° East 148 170 2,300 -600 Descending Potomac TRACON